createdAt,value
2017-06-01T00:01:12.445Z,18.46
2017-06-01T00:03:41.749Z,17.28
2017-06-01T00:06:10.760Z,19.74
2017-06-01T00:08:39.777Z,16.12
2017-06-01T00:11:09.215Z,16.72
2017-06-01T00:13:38.246Z,15.72
2017-06-01T00:16:07.225Z,11.96
2017-06-01T00:18:36.534Z,15.90
2017-06-01T00:21:05.506Z,11.52
2017-06-01T00:23:38.353Z,12.56
2017-06-01T00:26:07.340Z,12.20
2017-06-01T00:28:36.700Z,12.12
2017-06-01T00:31:05.683Z,14.00
2017-06-01T00:33:34.663Z,14.74
2017-06-01T00:36:03.974Z,21.46
2017-06-01T00:38:32.936Z,18.22
2017-06-01T00:41:01.928Z,17.62
2017-06-01T00:43:31.242Z,13.78
2017-06-01T00:46:00.238Z,18.02
2017-06-01T00:48:29.214Z,20.46
2017-06-01T00:50:58.524Z,12.02
2017-06-01T00:53:27.408Z,14.36
2017-06-01T00:55:56.420Z,16.70
2017-06-01T00:58:25.696Z,11.36
2017-06-01T01:00:54.682Z,13.04
2017-06-01T01:03:23.673Z,14.08
2017-06-01T01:05:52.953Z,12.70
2017-06-01T01:08:21.901Z,17.50
2017-06-01T01:10:50.882Z,13.10
2017-06-01T01:13:20.160Z,13.46
2017-06-01T01:15:49.126Z,13.66
2017-06-01T01:18:18.107Z,11.92
2017-06-01T01:20:47.429Z,11.96
2017-06-01T01:23:16.427Z,11.36
2017-06-01T01:25:45.457Z,14.34
2017-06-01T01:28:14.717Z,11.26
2017-06-01T01:30:43.717Z,13.84
2017-06-01T01:33:12.671Z,18.46
2017-06-01T01:35:41.913Z,11.30
2017-06-01T01:38:10.965Z,14.38
2017-06-01T01:40:39.924Z,10.24
2017-06-01T01:43:09.187Z,12.82
2017-06-01T01:45:38.164Z,11.92
2017-06-01T01:48:07.117Z,10.34
2017-06-01T01:50:36.341Z,9.64
2017-06-01T01:53:05.333Z,11.02
2017-06-01T01:55:34.303Z,12.12
2017-06-01T01:58:03.530Z,8.10
2017-06-01T02:00:32.503Z,13.40
2017-06-01T02:03:01.500Z,10.86
2017-06-01T02:05:30.814Z,12.30
2017-06-01T02:07:59.778Z,12.50
2017-06-01T02:10:28.756Z,12.68
2017-06-01T02:12:58.013Z,10.96
2017-06-01T02:15:26.984Z,17.94
2017-06-01T02:17:55.964Z,12.04
2017-06-01T02:20:25.272Z,11.88
2017-06-01T02:22:54.242Z,16.62
2017-06-01T02:25:23.214Z,11.32
2017-06-01T02:27:52.402Z,9.90
2017-06-01T02:30:21.378Z,13.26
2017-06-01T02:32:50.342Z,11.38
2017-06-01T02:35:19.569Z,12.34
2017-06-01T02:37:48.535Z,11.92
2017-06-01T02:40:17.505Z,12.04
2017-06-01T02:42:46.819Z,11.94
2017-06-01T02:45:15.830Z,14.30
2017-06-01T02:47:44.799Z,12.42
2017-06-01T02:50:14.094Z,13.60
2017-06-01T02:52:43.087Z,12.04
2017-06-01T02:55:12.053Z,12.54
2017-06-01T02:57:41.307Z,13.04
2017-06-01T03:00:10.300Z,11.36
2017-06-01T03:02:39.251Z,12.00
2017-06-01T03:05:08.583Z,10.42
2017-06-01T03:07:37.514Z,11.40
2017-06-01T03:10:06.531Z,14.36
2017-06-01T03:12:35.764Z,14.48
2017-06-01T03:15:04.724Z,12.40
2017-06-01T03:17:33.706Z,12.84
2017-06-01T03:20:02.915Z,12.62
2017-06-01T03:22:31.973Z,14.48
2017-06-01T03:25:00.946Z,11.36
2017-06-01T03:27:30.192Z,12.84
2017-06-01T03:29:59.170Z,11.48
2017-06-01T03:32:28.110Z,15.24
2017-06-01T03:34:57.381Z,13.32
2017-06-01T03:37:26.348Z,15.22
2017-06-01T03:39:55.332Z,15.18
2017-06-01T03:42:24.658Z,17.72
2017-06-01T03:44:53.647Z,19.92
2017-06-01T03:47:22.629Z,16.46
2017-06-01T03:49:51.862Z,16.92
2017-06-01T03:52:20.849Z,16.06
2017-06-01T03:54:49.804Z,16.08
2017-06-01T03:57:19.016Z,17.26
2017-06-01T03:59:48.022Z,22.10
2017-06-01T04:02:17.038Z,15.56
2017-06-01T04:04:46.508Z,19.28
2017-06-01T04:07:15.511Z,16.62
2017-06-01T04:09:44.470Z,17.82
2017-06-01T04:12:13.803Z,16.44
2017-06-01T04:14:42.782Z,20.02
2017-06-01T04:17:11.736Z,14.68
2017-06-01T04:19:41.053Z,23.64
2017-06-01T04:22:10.063Z,14.62
2017-06-01T04:24:39.043Z,14.44
2017-06-01T04:27:07.559Z,18.54
2017-06-01T04:29:36.530Z,15.24
2017-06-01T04:32:05.617Z,15.02
2017-06-01T04:34:34.870Z,17.00
2017-06-01T04:37:03.854Z,18.84
2017-06-01T04:39:32.858Z,16.20
2017-06-01T04:42:02.190Z,17.20
2017-06-01T04:44:31.160Z,22.24
2017-06-01T04:47:00.120Z,14.54
2017-06-01T04:49:29.349Z,16.12
2017-06-01T04:51:58.446Z,17.70
2017-06-01T04:54:27.412Z,14.16
2017-06-01T04:56:56.747Z,17.20
2017-06-01T04:59:25.705Z,17.80
2017-06-01T05:01:54.673Z,15.54
2017-06-01T05:04:23.939Z,19.74
2017-06-01T05:06:52.932Z,14.48
2017-06-01T05:09:21.982Z,16.60
2017-06-01T05:11:51.207Z,19.22
2017-06-01T05:14:20.172Z,15.02
2017-06-01T05:16:49.147Z,16.12
2017-06-01T05:19:18.373Z,16.48
2017-06-01T05:21:47.352Z,14.32
2017-06-01T05:24:16.330Z,21.62
2017-06-01T05:26:45.549Z,15.00
2017-06-01T05:29:14.729Z,16.00
2017-06-01T05:31:43.682Z,13.28
2017-06-01T05:34:12.725Z,15.66
2017-06-01T05:36:41.688Z,20.88
2017-06-01T05:39:10.924Z,20.42
2017-06-01T05:41:39.895Z,18.98
2017-06-01T05:44:08.869Z,15.20
2017-06-01T05:46:37.877Z,16.46
2017-06-01T05:49:06.844Z,18.42
2017-06-01T05:51:36.180Z,17.78
2017-06-01T05:54:05.165Z,16.98
2017-06-01T05:56:34.165Z,21.28
2017-06-01T05:59:03.151Z,15.98
2017-06-01T06:01:32.146Z,20.04
2017-06-01T06:04:01.438Z,14.18
2017-06-01T06:06:30.412Z,14.98
2017-06-01T06:08:59.381Z,16.06
2017-06-01T06:11:28.373Z,16.74
2017-06-01T06:13:57.528Z,13.78
2017-06-01T06:16:26.824Z,13.52
2017-06-01T06:18:55.805Z,21.04
2017-06-01T06:21:24.784Z,17.90
2017-06-01T06:23:54.020Z,17.74
2017-06-01T06:26:22.999Z,19.30
2017-06-01T06:28:51.999Z,19.90
2017-06-01T06:31:20.954Z,16.24
2017-06-01T06:33:49.929Z,18.48
2017-06-01T06:36:19.188Z,19.38
2017-06-01T06:38:48.196Z,18.70
2017-06-01T06:41:17.248Z,18.62
2017-06-01T06:43:46.237Z,18.50
2017-06-01T06:46:15.227Z,20.18
2017-06-01T06:48:44.644Z,16.28
2017-06-01T06:51:13.605Z,19.58
2017-06-01T06:53:42.601Z,19.46
2017-06-01T06:56:11.633Z,18.82
2017-06-01T06:58:41.279Z,27.92
2017-06-01T07:01:10.620Z,30.18
2017-06-01T07:03:39.597Z,18.82
2017-06-01T07:06:08.549Z,24.68
2017-06-01T07:08:37.552Z,17.32
2017-06-01T07:11:06.544Z,19.46
2017-06-01T07:13:35.565Z,18.50
2017-06-01T07:16:04.557Z,23.78
2017-06-01T07:18:33.759Z,20.80
2017-06-01T07:21:02.721Z,17.76
2017-06-01T07:23:31.701Z,17.32
2017-06-01T07:26:00.707Z,25.16
2017-06-01T07:28:29.714Z,17.62
2017-06-01T07:30:58.746Z,22.44
2017-06-01T07:33:27.696Z,25.30
2017-06-01T07:35:56.714Z,19.32
2017-06-01T07:38:25.710Z,19.94
2017-06-01T07:40:55.055Z,17.32
2017-06-01T07:43:24.040Z,21.40
2017-06-01T07:45:53.025Z,19.26
2017-06-01T07:48:22.036Z,24.08
2017-06-01T07:50:51.005Z,18.26
2017-06-01T07:53:20.247Z,17.20
2017-06-01T07:55:49.223Z,19.92
2017-06-01T07:58:18.205Z,19.58
2017-06-01T08:00:47.215Z,19.68
2017-06-01T08:03:16.205Z,20.52
2017-06-01T08:05:45.205Z,24.96
2017-06-01T08:08:14.174Z,17.64
2017-06-01T08:10:43.390Z,23.46
2017-06-01T08:13:12.367Z,19.94
2017-06-01T08:15:41.344Z,22.66
2017-06-01T08:18:10.331Z,29.04
2017-06-01T08:20:39.279Z,28.20
2017-06-01T08:23:08.298Z,23.92
2017-06-01T08:25:37.310Z,27.24
2017-06-01T08:28:06.565Z,27.70
2017-06-01T08:30:35.542Z,25.04
2017-06-01T08:33:04.569Z,24.30
2017-06-01T08:35:33.564Z,27.20
2017-06-01T08:38:02.596Z,28.90
2017-06-01T08:40:31.621Z,28.42
2017-06-01T08:43:00.587Z,21.30
2017-06-01T08:45:29.826Z,24.96
2017-06-01T08:47:58.789Z,21.12
2017-06-01T08:50:27.786Z,32.60
2017-06-01T08:52:56.769Z,25.26
2017-06-01T08:55:25.739Z,26.80
2017-06-01T08:57:54.735Z,27.22
2017-06-01T09:00:23.728Z,22.26
2017-06-01T09:02:52.784Z,34.38
2017-06-01T09:05:21.764Z,25.00
2017-06-01T09:07:51.016Z,23.68
2017-06-01T09:10:20.037Z,22.86
2017-06-01T09:12:49.002Z,24.44
2017-06-01T09:15:18.470Z,28.28
2017-06-01T09:17:47.438Z,28.20
2017-06-01T09:20:16.764Z,25.16
2017-06-01T09:22:45.762Z,25.66
2017-06-01T09:25:14.783Z,30.62
2017-06-01T09:27:43.782Z,27.96
2017-06-01T09:30:12.758Z,25.74
2017-06-01T09:32:41.767Z,30.78
2017-06-01T09:35:10.743Z,31.76
2017-06-01T09:37:39.289Z,30.22
2017-06-01T09:40:08.346Z,30.52
2017-06-01T09:42:37.305Z,25.20
2017-06-01T09:45:06.315Z,26.22
2017-06-01T09:47:35.301Z,25.76
2017-06-01T09:50:04.299Z,20.00
2017-06-01T09:52:33.285Z,24.92
2017-06-01T09:55:01.743Z,21.48
2017-06-01T09:57:30.757Z,25.44
2017-06-01T09:59:59.727Z,29.04
2017-06-01T10:02:28.650Z,28.36
2017-06-01T10:04:57.662Z,21.78
2017-06-01T10:07:26.932Z,23.74
2017-06-01T10:09:55.920Z,24.10
2017-06-01T10:12:24.898Z,18.06
2017-06-01T10:14:53.881Z,18.62
2017-06-01T10:17:22.864Z,18.58
2017-06-01T10:19:51.880Z,18.38
2017-06-01T10:22:20.892Z,16.22
2017-06-01T10:24:49.878Z,17.62
2017-06-01T10:27:18.857Z,13.86
2017-06-01T10:29:48.123Z,12.88
2017-06-01T10:32:17.088Z,8.96
2017-06-01T10:34:46.053Z,9.20
2017-06-01T10:37:15.049Z,9.42
2017-06-01T10:39:44.034Z,6.72
2017-06-01T10:42:13.052Z,7.82
2017-06-01T10:44:42.028Z,7.00
2017-06-01T10:47:11.262Z,8.46
2017-06-01T10:49:40.246Z,9.44
2017-06-01T10:52:09.218Z,8.70
2017-06-01T10:54:38.257Z,6.34
2017-06-01T10:57:07.229Z,11.16
2017-06-01T10:59:36.200Z,8.04
2017-06-01T11:02:05.175Z,8.74
2017-06-01T11:04:34.707Z,9.28
2017-06-01T11:07:03.673Z,9.98
2017-06-01T11:09:32.633Z,10.72
2017-06-01T11:12:01.646Z,8.92
2017-06-01T11:14:30.607Z,13.66
2017-06-01T11:16:59.598Z,13.56
2017-06-01T11:19:28.579Z,11.46
2017-06-01T11:21:57.964Z,13.58
2017-06-01T11:24:26.870Z,13.92
2017-06-01T11:26:55.857Z,17.64
2017-06-01T11:29:24.877Z,16.08
2017-06-01T11:31:53.855Z,14.40
2017-06-01T11:34:23.111Z,16.60
2017-06-01T11:36:52.085Z,14.76
2017-06-01T11:39:21.060Z,14.00
2017-06-01T11:41:50.071Z,11.14
2017-06-01T11:44:19.051Z,17.74
2017-06-01T11:46:48.039Z,11.46
2017-06-01T11:49:17.026Z,13.00
2017-06-01T11:51:46.251Z,15.70
2017-06-01T11:54:15.223Z,11.50
2017-06-01T11:56:44.192Z,13.02
2017-06-01T11:59:13.177Z,12.54
2017-06-01T12:01:42.133Z,11.28
2017-06-01T12:04:11.129Z,11.12
2017-06-01T12:06:40.099Z,9.08
2017-06-01T12:09:09.376Z,8.84
2017-06-01T12:11:38.331Z,13.82
2017-06-01T12:14:07.328Z,9.66
2017-06-01T12:16:36.380Z,13.18
2017-06-01T12:19:05.314Z,12.54
2017-06-01T12:21:34.594Z,10.58
2017-06-01T12:24:03.592Z,8.34
2017-06-01T12:26:32.557Z,10.26
2017-06-01T12:29:01.538Z,9.64
2017-06-01T12:31:30.504Z,8.98
2017-06-01T12:33:59.489Z,10.92
2017-06-01T12:36:28.466Z,8.26
2017-06-01T12:38:57.681Z,11.38
2017-06-01T12:41:26.653Z,7.68
2017-06-01T12:43:55.640Z,7.40
2017-06-01T12:46:24.626Z,8.12
2017-06-01T12:48:53.582Z,6.48
2017-06-01T12:51:22.688Z,7.08
2017-06-01T12:53:51.653Z,11.22
2017-06-01T12:56:20.887Z,7.78
2017-06-01T12:58:49.853Z,13.18
2017-06-01T13:01:18.856Z,9.22
2017-06-01T13:03:47.854Z,13.30
2017-06-01T13:06:16.839Z,7.54
2017-06-01T13:08:45.732Z,5.78
2017-06-01T13:11:14.728Z,5.08
2017-06-01T13:13:44.004Z,6.46
2017-06-01T13:16:12.944Z,6.32
2017-06-01T13:18:42.524Z,7.16
2017-06-01T13:21:11.537Z,5.98
2017-06-01T13:23:40.583Z,8.66
2017-06-01T13:26:09.581Z,15.24
2017-06-01T13:28:38.535Z,8.62
2017-06-01T13:31:07.863Z,8.68
2017-06-01T13:33:36.834Z,6.26
2017-06-01T13:36:05.807Z,4.38
2017-06-01T13:38:34.816Z,6.46
2017-06-01T13:41:03.703Z,5.10
2017-06-01T13:43:32.722Z,5.56
2017-06-01T13:46:01.692Z,5.06
2017-06-01T13:48:30.987Z,3.60
2017-06-01T13:51:00.195Z,6.28
2017-06-01T13:53:29.170Z,6.60
2017-06-01T13:55:58.204Z,8.04
2017-06-01T13:58:27.171Z,4.86
2017-06-01T14:00:56.179Z,6.68
2017-06-01T14:03:25.196Z,4.84
2017-06-01T14:05:54.401Z,8.04
2017-06-01T14:08:23.380Z,8.66
2017-06-01T14:10:52.347Z,6.36
2017-06-01T14:13:21.350Z,6.92
2017-06-01T14:15:50.337Z,12.04
2017-06-01T14:18:19.427Z,12.08
2017-06-01T14:20:48.381Z,10.30
2017-06-01T14:23:17.592Z,7.00
2017-06-01T14:25:46.570Z,10.06
2017-06-01T14:28:15.530Z,7.90
2017-06-01T14:30:44.524Z,7.40
2017-06-01T14:33:13.501Z,10.14
2017-06-01T14:35:42.707Z,7.72
2017-06-01T14:38:11.680Z,9.66
2017-06-01T14:40:40.663Z,7.18
2017-06-01T14:43:09.702Z,9.98
2017-06-01T14:45:38.726Z,7.36
2017-06-01T14:48:07.723Z,4.90
2017-06-01T14:50:36.685Z,7.40
2017-06-01T14:53:06.002Z,7.98
2017-06-01T14:55:35.009Z,5.86
2017-06-01T14:58:03.972Z,6.16
2017-06-01T15:00:32.961Z,7.96
2017-06-01T15:03:01.947Z,5.48
2017-06-01T15:05:30.940Z,9.92
2017-06-01T15:07:59.920Z,11.06
2017-06-01T15:10:29.209Z,7.12
2017-06-01T15:12:58.215Z,8.30
2017-06-01T15:15:27.195Z,7.34
2017-06-01T15:17:56.106Z,5.84
2017-06-01T15:20:25.112Z,6.68
2017-06-01T15:22:54.107Z,9.76
2017-06-01T15:25:23.083Z,6.60
2017-06-01T15:27:52.390Z,5.16
2017-06-01T15:30:21.406Z,4.80
2017-06-01T15:32:50.384Z,6.18
2017-06-01T15:35:19.399Z,5.56
2017-06-01T15:37:48.376Z,4.50
2017-06-01T15:40:17.379Z,5.06
2017-06-01T15:42:46.353Z,5.18
2017-06-01T15:45:15.737Z,5.10
2017-06-01T15:47:44.699Z,6.78
2017-06-01T15:50:13.642Z,7.62
2017-06-01T15:52:42.662Z,10.06
2017-06-01T15:55:11.637Z,5.16
2017-06-01T15:57:40.903Z,5.14
2017-06-01T16:00:09.872Z,7.22
2017-06-01T16:02:38.861Z,5.68
2017-06-01T16:05:07.888Z,8.48
2017-06-01T16:07:36.859Z,4.38
2017-06-01T16:10:06.265Z,6.74
2017-06-01T16:12:34.561Z,8.58
2017-06-01T16:15:03.542Z,6.04
2017-06-01T16:17:31.782Z,5.62
2017-06-01T16:20:00.743Z,10.10
2017-06-01T16:22:30.081Z,5.00
2017-06-01T16:24:59.054Z,4.82
2017-06-01T16:27:28.024Z,3.88
2017-06-01T16:29:57.022Z,6.80
2017-06-01T16:32:26.003Z,9.10
2017-06-01T16:34:55.369Z,11.12
2017-06-01T16:37:24.362Z,5.92
2017-06-01T16:39:53.320Z,5.56
2017-06-01T16:42:22.316Z,6.70
2017-06-01T16:44:51.288Z,6.64
2017-06-01T16:47:20.292Z,7.34
2017-06-01T16:49:49.285Z,5.06
2017-06-01T16:52:18.699Z,5.30
2017-06-01T16:54:47.681Z,8.26
2017-06-01T16:57:16.647Z,11.76
2017-06-01T16:59:45.631Z,4.90
2017-06-01T17:02:14.624Z,7.48
2017-06-01T17:04:43.618Z,7.80
2017-06-01T17:07:12.591Z,4.74
2017-06-01T17:09:41.592Z,7.16
2017-06-01T17:12:10.580Z,6.46
2017-06-01T17:14:39.684Z,6.32
2017-06-01T17:17:08.619Z,9.66
2017-06-01T17:19:37.634Z,9.62
2017-06-01T17:22:06.621Z,6.58
2017-06-01T17:24:35.617Z,7.94
2017-06-01T17:27:03.825Z,6.22
2017-06-01T17:29:32.822Z,5.02
2017-06-01T17:32:01.805Z,6.92
2017-06-01T17:34:30.836Z,11.96
2017-06-01T17:36:59.816Z,7.06
2017-06-01T17:39:28.818Z,11.18
2017-06-01T17:41:57.840Z,5.66
2017-06-01T17:44:26.823Z,6.20
2017-06-01T17:46:55.819Z,6.90
2017-06-01T17:49:24.805Z,5.50
2017-06-01T17:51:53.878Z,11.82
2017-06-01T17:54:23.682Z,9.20
2017-06-01T17:56:52.676Z,5.98
2017-06-01T17:59:21.657Z,5.88
2017-06-01T18:01:50.681Z,8.16
2017-06-01T18:04:19.684Z,9.80
2017-06-01T18:06:48.770Z,6.50
2017-06-01T18:09:17.761Z,9.70
2017-06-01T18:11:46.750Z,8.32
2017-06-01T18:14:15.804Z,6.18
2017-06-01T18:16:44.779Z,8.16
2017-06-01T18:19:13.780Z,5.72
2017-06-01T18:21:42.759Z,6.10
2017-06-01T18:24:11.039Z,5.02
2017-06-01T18:26:40.061Z,7.14
2017-06-01T18:29:09.062Z,6.54
2017-06-01T18:31:38.043Z,6.60
2017-06-01T18:34:07.030Z,14.86
2017-06-01T18:36:36.011Z,7.24
2017-06-01T18:39:05.005Z,7.18
2017-06-01T18:41:33.990Z,7.54
2017-06-01T18:44:02.990Z,6.98
2017-06-01T18:46:31.953Z,7.72
2017-06-01T18:49:01.077Z,4.96
2017-06-01T18:51:30.060Z,9.42
2017-06-01T18:53:59.054Z,8.38
2017-06-01T18:56:28.053Z,8.42
2017-06-01T18:58:57.057Z,7.32
2017-06-01T19:01:26.086Z,9.58
2017-06-01T19:06:56.010Z,5.88
2017-06-01T19:09:25.105Z,6.60
2017-06-01T19:11:54.110Z,8.58
2017-06-01T19:14:23.144Z,6.28
2017-06-01T19:16:52.131Z,5.78
2017-06-01T19:19:21.146Z,6.62
2017-06-01T19:21:50.152Z,9.68
2017-06-01T19:24:19.145Z,8.18
2017-06-01T19:26:48.153Z,10.38
2017-06-01T19:29:17.534Z,7.30
2017-06-01T19:31:46.501Z,6.44
2017-06-01T19:34:15.494Z,7.58
2017-06-01T19:36:44.650Z,11.54
2017-06-01T19:39:13.637Z,11.14
2017-06-01T19:41:42.651Z,10.96
2017-06-01T19:44:11.657Z,7.36
2017-06-01T19:46:40.673Z,11.20
2017-06-01T19:49:09.689Z,10.90
2017-06-01T19:51:38.721Z,7.96
2017-06-01T19:54:07.750Z,10.22
2017-06-01T19:56:36.006Z,14.02
2017-06-01T19:59:05.001Z,8.10
2017-06-01T20:01:34.025Z,10.30
2017-06-01T20:04:03.000Z,9.28
2017-06-01T20:06:32.038Z,8.36
2017-06-01T20:09:01.046Z,9.10
2017-06-01T20:11:30.059Z,11.32
2017-06-01T20:13:58.980Z,9.64
2017-06-01T20:16:28.042Z,12.54
2017-06-01T20:18:57.045Z,10.94
2017-06-01T20:21:26.087Z,7.36
2017-06-01T20:23:55.061Z,8.94
2017-06-01T20:26:24.039Z,7.66
2017-06-01T20:28:53.057Z,5.00
2017-06-01T20:31:22.067Z,5.34
2017-06-01T20:33:54.078Z,5.08
2017-06-01T20:36:23.070Z,4.26
2017-06-01T20:38:52.079Z,10.54
2017-06-01T20:41:21.098Z,3.72
2017-06-01T20:43:50.104Z,3.60
2017-06-01T20:46:19.230Z,2.78
2017-06-01T20:48:48.212Z,2.58
2017-06-01T20:51:17.206Z,5.04
2017-06-01T20:53:46.186Z,2.68
2017-06-01T20:56:15.170Z,2.94
2017-06-01T20:58:44.180Z,3.34
2017-06-01T21:01:13.337Z,2.52
2017-06-01T21:03:42.470Z,4.42
2017-06-01T21:06:11.508Z,3.38
2017-06-01T21:08:40.461Z,3.78
2017-06-01T21:11:09.990Z,3.60
2017-06-01T21:13:38.986Z,3.36
2017-06-01T21:16:08.039Z,2.24
2017-06-01T21:18:36.274Z,2.58
2017-06-01T21:21:05.303Z,3.00
2017-06-01T21:23:34.283Z,3.14
2017-06-01T21:26:03.220Z,2.58
2017-06-01T21:28:32.277Z,4.80
2017-06-01T21:31:01.350Z,7.20
2017-06-01T21:33:30.337Z,2.78
2017-06-01T21:35:59.323Z,1.86
2017-06-01T21:38:28.338Z,3.28
2017-06-01T21:40:57.341Z,2.92
2017-06-01T21:43:26.297Z,3.14
2017-06-01T21:45:55.252Z,3.66
2017-06-01T21:48:24.312Z,2.58
2017-06-01T21:50:53.279Z,2.78
2017-06-01T21:53:22.287Z,2.26
2017-06-01T21:55:51.251Z,2.68
2017-06-01T21:58:20.239Z,3.54
2017-06-01T22:00:49.206Z,2.98
2017-06-01T22:03:18.290Z,2.88
2017-06-01T22:05:47.255Z,5.86
2017-06-01T22:08:16.242Z,2.82
2017-06-01T22:10:45.213Z,3.40
2017-06-01T22:13:14.201Z,3.98
2017-06-01T22:15:43.207Z,4.42
2017-06-01T22:18:12.198Z,5.14
2017-06-01T22:20:41.172Z,3.64
2017-06-01T22:23:10.193Z,4.12
2017-06-01T22:25:39.175Z,3.12
2017-06-01T22:28:08.165Z,3.00
2017-06-01T22:30:37.179Z,2.60
2017-06-01T22:33:06.202Z,4.58
2017-06-01T22:35:35.228Z,2.56
2017-06-01T22:38:04.204Z,3.02
2017-06-01T22:40:52.781Z,3.10
2017-06-01T22:43:21.784Z,3.06
2017-06-01T22:45:50.740Z,2.78
2017-06-01T22:48:19.750Z,2.80
2017-06-01T22:50:48.723Z,3.54
2017-06-01T22:53:17.754Z,6.94
2017-06-01T22:55:46.732Z,3.56
2017-06-01T22:58:15.722Z,6.84
2017-06-01T23:00:44.700Z,4.90
2017-06-01T23:03:13.689Z,4.70
2017-06-01T23:05:42.662Z,3.42
2017-06-01T23:08:11.729Z,3.82
2017-06-01T23:10:40.685Z,4.54
2017-06-01T23:13:09.668Z,3.46
2017-06-01T23:15:38.624Z,2.96
2017-06-01T23:18:07.605Z,3.58
2017-06-01T23:20:36.597Z,4.70
2017-06-01T23:23:05.596Z,2.80
2017-06-01T23:25:34.557Z,4.32
2017-06-01T23:28:03.549Z,3.02
2017-06-01T23:30:32.597Z,4.60
2017-06-01T23:33:01.587Z,4.38
2017-06-01T23:35:29.779Z,5.98
2017-06-01T23:37:58.830Z,5.08
2017-06-01T23:40:27.798Z,7.98
2017-06-01T23:42:56.788Z,8.88
2017-06-01T23:45:25.767Z,5.30
2017-06-01T23:47:54.752Z,4.94
2017-06-01T23:50:23.746Z,4.48
2017-06-01T23:52:52.802Z,4.64
2017-06-01T23:55:21.039Z,5.18
2017-06-01T23:57:50.042Z,8.56
